Weather at Wellington Aero Club Airport

Public forecast

Using degrees Fahrenheit for public forecast. Weather courtesy of forecast.io.

Closest aviation weather report (METAR) to Wellington Aero Club Airport

Closest report is Palm Beach International Airport, 10.9 nm (20.2 km) ENE. Retrieved 2021/01/23 04:53 UTC (1 hour ago):

KPBI 230453Z 28005KT 10SM CLR 17/14 A3004 RMK AO2 SLP172 T01670144 402610111

Closest aviation forecast (TAF) to Wellington Aero Club Airport

Closest forecast is Palm Beach International Airport, 10.9 nm (20.2 km) ENE. Retrieved 2021-01-23 00:28 UTC (5 hours ago):

TAF KPBI 222325Z 2300/2324 22010KT P6SM FEW050 FM230100 VRB03KT P6SM FEW015 FEW250 FM231600 04008KT P6SM FEW050 SCT250